Time;durP1;ratioP1;P1;durP2;ratioP2;P2;SDS_P1;SDS_P2;PMS_P1;PMS_P2;Temp;Humidity;BMP_temperature;BMP_pressure;BME280_temperature;BME280_humidity;BME280_pressure;Samples;Min_cycle;Max_cycle;Signal;HPM_P1;HPM_P2
2022/07/12 00:00:57;;;;;;;5.07;4.23;;;19.10;99.90;;;;;;5053964;28;20492;-54
2022/07/12 00:03:24;;;;;;;3.40;3.10;;;19.00;99.90;;;;;;5054013;28;20488;-54
2022/07/12 00:05:51;;;;;;;6.27;3.93;;;19.00;99.90;;;;;;5053991;28;20457;-54
2022/07/12 00:08:20;;;;;;;3.93;3.63;;;19.00;99.90;;;;;;5054126;28;20804;-54
2022/07/12 00:10:47;;;;;;;8.23;3.90;;;18.90;99.90;;;;;;5053630;28;20913;-54
2022/07/12 00:13:15;;;;;;;3.37;3.07;;;19.00;99.90;;;;;;5053555;28;20441;-54
2022/07/12 00:15:42;;;;;;;3.60;3.30;;;19.00;99.90;;;;;;5054002;28;20503;-54
2022/07/12 00:18:10;;;;;;;4.20;3.90;;;19.00;99.90;;;;;;5053824;28;20536;-54
2022/07/12 00:20:38;;;;;;;3.43;3.13;;;18.90;99.90;;;;;;5053693;28;20580;-54
2022/07/12 00:23:05;;;;;;;4.10;3.80;;;19.00;99.90;;;;;;5053761;28;20477;-54
2022/07/12 00:25:34;;;;;;;4.57;4.17;;;19.00;99.90;;;;;;5053482;28;20436;-54
2022/07/12 00:28:02;;;;;;;4.30;3.83;;;19.00;99.90;;;;;;5053384;28;20433;-54
2022/07/12 00:30:29;;;;;;;4.03;3.67;;;18.90;99.90;;;;;;5053621;28;20542;-54
2022/07/12 00:32:56;;;;;;;6.73;3.47;;;19.00;99.90;;;;;;5053544;28;20865;-54
2022/07/12 00:35:23;;;;;;;4.03;3.63;;;19.00;99.90;;;;;;5052594;28;20452;-54
2022/07/12 00:37:51;;;;;;;4.20;3.73;;;19.00;99.90;;;;;;5053440;28;20445;-54
2022/07/12 00:40:18;;;;;;;4.40;3.80;;;19.00;99.90;;;;;;5053076;28;20572;-54
2022/07/12 00:42:47;;;;;;;4.47;4.17;;;18.90;99.90;;;;;;5052981;28;20511;-54
2022/07/12 00:45:14;;;;;;;4.63;4.23;;;18.90;99.90;;;;;;5053405;28;20528;-54
2022/07/12 00:47:45;;;;;;;4.37;4.07;;;18.90;99.90;;;;;;5053186;28;20445;-54
2022/07/12 00:50:15;;;;;;;4.93;3.97;;;18.90;99.90;;;;;;5052943;28;20465;-54
2022/07/12 00:52:44;;;;;;;3.70;3.40;;;18.90;99.90;;;;;;5053043;28;21014;-54
2022/07/12 00:55:12;;;;;;;4.60;4.20;;;18.80;99.90;;;;;;5053045;28;20818;-55
2022/07/12 00:57:43;;;;;;;5.57;3.83;;;18.80;99.90;;;;;;5053086;28;20457;-54
2022/07/12 01:00:14;;;;;;;3.70;3.40;;;18.90;99.90;;;;;;5053205;28;20461;-55
2022/07/12 01:02:42;;;;;;;4.20;3.60;;;18.90;99.90;;;;;;5053085;28;20465;-54
2022/07/12 01:05:10;;;;;;;3.73;3.43;;;18.90;99.90;;;;;;5053273;28;20560;-54
2022/07/12 01:07:38;;;;;;;4.77;3.40;;;18.90;99.90;;;;;;5053111;28;20449;-54
2022/07/12 01:10:07;;;;;;;4.17;3.80;;;18.90;99.90;;;;;;5052999;28;20465;-54
2022/07/12 01:12:34;;;;;;;4.60;3.60;;;18.90;99.90;;;;;;5052873;28;20448;-54
2022/07/12 01:15:03;;;;;;;5.50;4.10;;;18.90;99.90;;;;;;5052755;28;20455;-54
2022/07/12 01:17:32;;;;;;;4.70;4.30;;;18.80;99.90;;;;;;5052960;28;20453;-54
2022/07/12 01:20:00;;;;;;;4.10;3.70;;;18.80;99.90;;;;;;5052661;28;20472;-54
2022/07/12 01:22:31;;;;;;;4.00;3.70;;;18.60;99.90;;;;;;5053005;28;20455;-54
2022/07/12 01:25:01;;;;;;;3.40;3.10;;;18.60;99.90;;;;;;5052978;28;20429;-54
2022/07/12 01:27:28;;;;;;;8.80;5.10;;;18.60;99.90;;;;;;5052587;28;20958;-54
2022/07/12 01:29:56;;;;;;;3.50;3.20;;;18.60;99.90;;;;;;5052617;28;20469;-54
2022/07/12 01:32:26;;;;;;;5.67;3.80;;;18.70;99.90;;;;;;5052516;28;20928;-54
2022/07/12 01:34:55;;;;;;;4.57;4.17;;;18.70;99.90;;;;;;5052478;28;20433;-54
2022/07/12 01:37:24;;;;;;;3.67;3.37;;;18.80;99.90;;;;;;5052993;28;20457;-54
2022/07/12 01:39:55;;;;;;;4.33;4.00;;;18.60;99.90;;;;;;5052486;28;20502;-54
2022/07/12 01:42:25;;;;;;;4.23;3.93;;;18.40;99.90;;;;;;5052452;28;20429;-54
2022/07/12 01:44:54;;;;;;;4.00;3.70;;;18.30;99.90;;;;;;5052709;28;20887;-54
2022/07/12 01:47:21;;;;;;;4.80;4.40;;;18.20;99.90;;;;;;5056553;28;20539;-55
2022/07/12 01:49:49;;;;;;;4.90;4.50;;;18.10;99.90;;;;;;5056309;28;20465;-54
2022/07/12 01:52:16;;;;;;;4.73;4.33;;;18.10;99.90;;;;;;5056205;28;20538;-54
2022/07/12 01:54:43;;;;;;;4.90;4.50;;;18.10;99.90;;;;;;5056337;28;20958;-54
2022/07/12 01:57:11;;;;;;;5.13;4.73;;;18.10;99.90;;;;;;5056536;28;20499;-54
2022/07/12 01:59:41;;;;;;;4.57;4.17;;;18.20;99.90;;;;;;5056412;28;20480;-54
2022/07/12 02:02:08;;;;;;;4.93;4.53;;;18.20;99.90;;;;;;5056578;28;20531;-54
2022/07/12 02:04:35;;;;;;;6.43;4.80;;;18.20;99.90;;;;;;5056153;28;20490;-54
2022/07/12 02:07:04;;;;;;;5.03;4.53;;;18.20;99.90;;;;;;5056531;28;20452;-54
2022/07/12 02:09:32;;;;;;;5.27;4.37;;;18.20;99.90;;;;;;5056169;28;20469;-54
2022/07/12 02:11:59;;;;;;;5.27;4.80;;;18.20;99.90;;;;;;5056268;28;20429;-54
2022/07/12 02:14:27;;;;;;;4.40;4.00;;;18.20;99.90;;;;;;5055893;28;20459;-54
2022/07/12 02:16:56;;;;;;;4.67;3.80;;;18.10;99.90;;;;;;5055821;28;20456;-54
2022/07/12 02:19:23;;;;;;;4.47;4.07;;;18.10;99.90;;;;;;5056136;28;20455;-54
2022/07/12 02:21:50;;;;;;;6.83;4.67;;;18.10;99.90;;;;;;5055997;28;20946;-54
2022/07/12 02:24:17;;;;;;;4.67;4.27;;;18.00;99.90;;;;;;5055941;28;20476;-54
2022/07/12 02:26:45;;;;;;;4.00;3.70;;;18.00;99.90;;;;;;5055750;28;20445;-54
2022/07/12 02:29:12;;;;;;;4.30;3.90;;;18.00;99.90;;;;;;5055547;28;20544;-54
2022/07/12 02:31:39;;;;;;;4.43;4.13;;;17.70;99.90;;;;;;5055517;28;20449;-54
2022/07/12 02:34:08;;;;;;;5.40;3.83;;;17.40;99.90;;;;;;5055987;28;20464;-54
2022/07/12 02:36:35;;;;;;;4.80;4.37;;;17.40;99.90;;;;;;5055839;28;20924;-54
2022/07/12 02:39:04;;;;;;;5.30;4.37;;;17.50;99.90;;;;;;5055449;28;20481;-54
2022/07/12 02:41:33;;;;;;;4.70;4.30;;;17.60;99.90;;;;;;5055437;28;20473;-54
2022/07/12 02:44:00;;;;;;;6.03;5.43;;;17.60;99.90;;;;;;5055423;28;20480;-54
2022/07/12 02:46:27;;;;;;;4.73;4.30;;;17.30;99.90;;;;;;5055277;28;20931;-55
2022/07/12 02:48:54;;;;;;;5.33;4.83;;;17.10;99.90;;;;;;5055302;28;20484;-54
2022/07/12 02:51:23;;;;;;;5.90;5.40;;;17.00;99.90;;;;;;5055186;28;20505;-54
2022/07/12 02:53:50;;;;;;;4.33;4.03;;;17.00;99.90;;;;;;5055145;28;20496;-55
2022/07/12 02:56:17;;;;;;;4.50;4.13;;;17.00;99.90;;;;;;5054719;28;20452;-55
2022/07/12 02:58:45;;;;;;;5.53;4.33;;;17.20;99.90;;;;;;5054629;28;20449;-55
2022/07/12 03:01:13;;;;;;;4.80;4.40;;;17.20;99.90;;;;;;5054906;28;20538;-54
2022/07/12 03:03:40;;;;;;;6.17;3.87;;;17.20;99.90;;;;;;5055060;28;20516;-54
2022/07/12 03:06:07;;;;;;;4.87;4.47;;;17.20;99.90;;;;;;5055277;28;20467;-54
2022/07/12 03:08:35;;;;;;;4.50;4.10;;;17.10;99.90;;;;;;5054847;28;20449;-54
2022/07/12 03:11:03;;;;;;;4.47;4.17;;;16.90;99.90;;;;;;5055181;28;20465;-54
2022/07/12 03:13:30;;;;;;;5.17;4.00;;;16.90;99.90;;;;;;5055219;28;20532;-54
2022/07/12 03:15:57;;;;;;;3.70;3.40;;;16.90;99.90;;;;;;5055027;28;20476;-54
2022/07/12 03:18:25;;;;;;;4.10;3.80;;;16.90;99.90;;;;;;5054702;28;20449;-54
2022/07/12 03:20:52;;;;;;;4.17;3.87;;;16.90;99.90;;;;;;5054976;28;20475;-54
2022/07/12 03:23:19;;;;;;;3.90;3.50;;;17.00;99.90;;;;;;5054423;28;20481;-54
2022/07/12 03:25:48;;;;;;;3.80;3.50;;;16.90;99.90;;;;;;5054622;28;20634;-54
2022/07/12 03:28:15;;;;;;;3.13;2.93;;;16.90;99.90;;;;;;5054633;28;20485;-54
2022/07/12 03:30:42;;;;;;;4.13;3.73;;;17.00;99.90;;;;;;5054689;28;20560;-54
2022/07/12 03:33:10;;;;;;;3.60;3.30;;;16.90;99.90;;;;;;5054416;28;20532;-54
2022/07/12 03:35:37;;;;;;;4.00;3.60;;;16.90;99.90;;;;;;5054782;28;20489;-54
2022/07/12 03:38:04;;;;;;;3.80;3.50;;;16.80;99.90;;;;;;5054451;28;20438;-54
2022/07/12 03:40:34;;;;;;;4.83;4.10;;;16.80;99.90;;;;;;5054027;28;20484;-54
2022/07/12 03:43:02;;;;;;;3.60;3.30;;;17.00;99.90;;;;;;5054236;28;20975;-54
2022/07/12 03:45:30;;;;;;;4.03;3.73;;;17.00;99.90;;;;;;5054184;28;20445;-55
2022/07/12 03:47:57;;;;;;;4.63;3.90;;;17.10;99.90;;;;;;5054054;28;20502;-54
2022/07/12 03:50:24;;;;;;;5.43;4.37;;;17.20;99.90;;;;;;5054265;28;20519;-54
2022/07/12 03:52:51;;;;;;;4.40;4.00;;;17.20;99.90;;;;;;5054349;28;20453;-54
2022/07/12 03:55:18;;;;;;;6.23;4.40;;;17.30;99.90;;;;;;5054008;28;20952;-55
2022/07/12 03:57:46;;;;;;;5.17;4.13;;;17.30;99.90;;;;;;5054269;28;20449;-55
2022/07/12 04:00:15;;;;;;;4.10;3.80;;;17.10;99.90;;;;;;5053960;28;20979;-55
2022/07/12 04:02:43;;;;;;;4.10;3.80;;;16.80;99.90;;;;;;5054144;28;20449;-55
2022/07/12 04:05:12;;;;;;;3.80;3.50;;;16.70;99.90;;;;;;5053996;28;20559;-55
2022/07/12 04:07:40;;;;;;;4.90;4.43;;;16.80;99.90;;;;;;5054025;28;20521;-55
2022/07/12 04:10:08;;;;;;;4.87;4.33;;;16.70;99.90;;;;;;5053839;28;20469;-55
2022/07/12 04:12:36;;;;;;;3.80;3.50;;;16.60;99.90;;;;;;5053898;28;20455;-54
2022/07/12 04:15:03;;;;;;;6.07;4.00;;;16.60;99.90;;;;;;5053959;28;20552;-55
2022/07/12 04:17:32;;;;;;;4.33;4.03;;;16.60;99.90;;;;;;5053979;28;20970;-55
2022/07/12 04:19:59;;;;;;;4.00;3.60;;;16.70;99.90;;;;;;5053382;28;20592;-54
2022/07/12 04:22:26;;;;;;;4.47;4.03;;;16.80;99.90;;;;;;5053225;28;20537;-54
2022/07/12 04:24:53;;;;;;;4.17;3.83;;;17.00;99.90;;;;;;5053393;28;20911;-54
2022/07/12 04:27:20;;;;;;;4.50;4.20;;;17.00;99.90;;;;;;5053317;28;20540;-55
2022/07/12 04:29:48;;;;;;;4.70;4.40;;;16.90;99.90;;;;;;5053563;28;20469;-55
2022/07/12 04:32:15;;;;;;;3.63;3.33;;;16.90;99.90;;;;;;5053344;28;20503;-55
2022/07/12 04:34:44;;;;;;;4.93;4.53;;;17.00;99.90;;;;;;5053616;28;20468;-55
2022/07/12 04:37:11;;;;;;;5.77;4.13;;;17.10;99.90;;;;;;5053304;28;20549;-56
2022/07/12 04:39:38;;;;;;;4.70;4.27;;;17.20;99.90;;;;;;5053288;28;20826;-55
2022/07/12 04:42:06;;;;;;;7.50;4.60;;;17.20;99.90;;;;;;5053415;28;20481;-55
2022/07/12 04:44:33;;;;;;;4.60;4.20;;;17.20;99.90;;;;;;5053273;28;20477;-55
2022/07/12 04:47:00;;;;;;;4.90;4.50;;;17.30;99.90;;;;;;5053448;28;20524;-55
2022/07/12 04:49:27;;;;;;;5.73;5.23;;;17.30;99.90;;;;;;5052780;28;22172;-55
2022/07/12 04:51:56;;;;;;;5.10;4.13;;;17.20;99.90;;;;;;5053140;28;20449;-55
2022/07/12 04:54:23;;;;;;;6.33;5.53;;;17.30;99.90;;;;;;5053108;28;20441;-55
2022/07/12 04:56:50;;;;;;;5.73;5.23;;;17.40;99.90;;;;;;5052894;28;20452;-55
2022/07/12 04:59:17;;;;;;;4.50;4.10;;;17.40;99.90;;;;;;5052641;28;20451;-55
2022/07/12 05:01:45;;;;;;;5.70;5.20;;;17.40;99.90;;;;;;5052937;28;20943;-56
2022/07/12 05:04:12;;;;;;;5.00;4.57;;;17.50;99.90;;;;;;5052606;28;20983;-56
2022/07/12 05:06:40;;;;;;;4.83;4.30;;;17.50;99.90;;;;;;5053161;28;20475;-55
2022/07/12 05:09:08;;;;;;;4.80;4.40;;;17.50;99.90;;;;;;5053120;28;20449;-56
2022/07/12 05:11:35;;;;;;;4.80;4.40;;;17.60;99.90;;;;;;5053423;28;20484;-55
2022/07/12 05:14:03;;;;;;;4.53;4.17;;;17.60;99.90;;;;;;5052916;28;20548;-56
2022/07/12 05:16:30;;;;;;;4.80;4.33;;;17.60;99.90;;;;;;5053283;28;20449;-55
2022/07/12 05:18:57;;;;;;;4.97;4.57;;;17.70;99.90;;;;;;5053454;28;20453;-55
2022/07/12 05:21:25;;;;;;;7.30;5.80;;;17.70;99.90;;;;;;5055369;28;20551;-55
2022/07/12 05:23:52;;;;;;;5.43;4.83;;;17.60;99.90;;;;;;5056291;28;20565;-55
2022/07/12 05:26:21;;;;;;;5.17;4.70;;;17.60;99.90;;;;;;5056744;28;20815;-55
2022/07/12 05:28:48;;;;;;;4.83;4.43;;;17.80;99.90;;;;;;5056685;28;20443;-55
2022/07/12 05:31:16;;;;;;;9.47;5.20;;;17.80;99.90;;;;;;5056786;28;20542;-55
2022/07/12 05:33:43;;;;;;;6.03;4.73;;;17.90;99.90;;;;;;5056491;28;20532;-55
2022/07/12 05:36:10;;;;;;;4.70;4.30;;;17.90;99.90;;;;;;5056817;28;20457;-55
2022/07/12 05:38:37;;;;;;;4.77;4.37;;;17.90;99.90;;;;;;5056306;28;20480;-55
2022/07/12 05:41:05;;;;;;;4.17;3.77;;;18.00;99.90;;;;;;5056478;28;20922;-55
2022/07/12 05:43:34;;;;;;;4.50;4.10;;;18.10;99.90;;;;;;5056407;28;20445;-55
2022/07/12 05:46:01;;;;;;;3.93;3.63;;;18.10;99.90;;;;;;5056128;28;20853;-55
2022/07/12 05:48:28;;;;;;;5.20;3.17;;;18.10;99.90;;;;;;5056300;28;20611;-55
2022/07/12 05:53:21;;;;;;;5.00;4.60;;;18.20;99.90;;;;;;5056135;28;20789;-55
2022/07/12 05:53:41;;;;;;;4.30;4.00;;;18.20;99.90;;;;;;5055874;28;20513;-55
2022/07/12 05:56:09;;;;;;;3.77;3.47;;;18.20;99.90;;;;;;5056345;28;20441;-55
2022/07/12 05:58:37;;;;;;;3.63;3.33;;;18.30;99.90;;;;;;5056196;28;20797;-56
2022/07/12 06:01:05;;;;;;;3.77;3.40;;;18.30;99.90;;;;;;5055931;28;20560;-55
2022/07/12 06:03:32;;;;;;;4.47;3.97;;;18.40;99.90;;;;;;5056045;28;20447;-55
2022/07/12 06:06:00;;;;;;;4.23;3.50;;;18.40;99.90;;;;;;5055975;28;20531;-55
2022/07/12 06:08:27;;;;;;;3.60;3.20;;;18.50;99.90;;;;;;5054776;28;20441;-55
2022/07/12 06:10:55;;;;;;;4.10;3.80;;;18.60;99.90;;;;;;5056041;28;20491;-55
2022/07/12 06:13:22;;;;;;;3.20;2.90;;;18.50;99.90;;;;;;5055568;28;20506;-55
2022/07/12 06:15:51;;;;;;;3.20;3.00;;;18.40;99.90;;;;;;5055643;28;20452;-55
2022/07/12 06:18:18;;;;;;;3.00;2.70;;;18.40;99.90;;;;;;5055540;28;20536;-55
2022/07/12 06:20:46;;;;;;;3.03;2.83;;;18.50;99.90;;;;;;5055831;28;20522;-55
2022/07/12 06:23:13;;;;;;;3.47;3.10;;;18.50;99.90;;;;;;5055695;28;20449;-55
2022/07/12 06:25:41;;;;;;;3.30;2.97;;;18.70;99.90;;;;;;5055222;28;20483;-55
2022/07/12 06:28:08;;;;;;;3.20;2.90;;;18.70;99.90;;;;;;5055366;28;20530;-55
2022/07/12 06:30:35;;;;;;;3.27;2.97;;;18.80;99.90;;;;;;5055220;28;20496;-55
2022/07/12 06:33:04;;;;;;;3.17;2.93;;;18.90;99.90;;;;;;5055458;28;20476;-55
2022/07/12 06:35:31;;;;;;;4.90;3.50;;;18.90;99.90;;;;;;5055355;28;20809;-54
2022/07/12 06:37:58;;;;;;;4.53;3.00;;;19.00;99.90;;;;;;5055400;28;20539;-54
2022/07/12 06:40:25;;;;;;;3.43;2.77;;;19.00;99.90;;;;;;5054822;28;20571;-56
2022/07/12 06:42:52;;;;;;;4.13;2.90;;;19.10;99.90;;;;;;5055021;28;20488;-56
2022/07/12 06:45:19;;;;;;;2.57;2.37;;;19.10;99.90;;;;;;5054892;28;21003;-55
2022/07/12 06:47:47;;;;;;;3.40;2.30;;;19.30;99.90;;;;;;5055263;28;20505;-55
2022/07/12 06:50:15;;;;;;;2.70;2.50;;;19.30;99.90;;;;;;5054986;28;20522;-55
2022/07/12 06:52:42;;;;;;;3.00;2.70;;;19.50;99.90;;;;;;5055063;28;20632;-55
2022/07/12 06:55:10;;;;;;;6.03;2.60;;;19.60;99.90;;;;;;5054753;28;20954;-55
2022/07/12 06:57:37;;;;;;;3.50;1.93;;;19.70;99.90;;;;;;5054778;28;20445;-55
2022/07/12 07:00:06;;;;;;;2.03;1.93;;;19.80;99.90;;;;;;5054789;28;20468;-55
2022/07/12 07:02:34;;;;;;;2.10;1.90;;;19.70;99.90;;;;;;5055060;28;20450;-56
2022/07/12 07:05:01;;;;;;;2.20;2.00;;;19.60;99.90;;;;;;5054384;28;20612;-56
2022/07/12 07:07:29;;;;;;;2.47;2.10;;;19.60;99.90;;;;;;5054465;28;20510;-55
2022/07/12 07:09:56;;;;;;;2.37;2.13;;;19.70;99.90;;;;;;5054859;28;20819;-55
2022/07/12 07:12:24;;;;;;;2.00;1.80;;;19.80;99.90;;;;;;5054772;28;20448;-55
2022/07/12 07:14:51;;;;;;;2.30;2.10;;;19.90;99.90;;;;;;5054428;28;20448;-55
2022/07/12 07:17:19;;;;;;;2.10;1.90;;;20.60;99.90;;;;;;5054756;28;20429;-55
2022/07/12 07:19:46;;;;;;;2.20;2.00;;;21.50;99.90;;;;;;5054414;28;20972;-56
2022/07/12 07:22:14;;;;;;;3.80;1.80;;;22.00;99.90;;;;;;5054594;28;20450;-57
2022/07/12 07:24:42;;;;;;;1.77;1.67;;;23.00;99.90;;;;;;5054753;28;20910;-55
2022/07/12 07:27:10;;;;;;;1.60;1.50;;;23.50;99.90;;;;;;5054633;28;20890;-56
2022/07/12 07:32:22;;;;;;;2.23;2.03;;;23.50;99.70;;;;;;5054303;28;20452;-56
2022/07/12 07:34:49;;;;;;;2.60;2.20;;;24.10;99.90;;;;;;5054408;28;20449;-56
2022/07/12 07:37:17;;;;;;;1.90;1.80;;;24.30;99.50;;;;;;5054291;28;20520;-56
2022/07/12 07:39:45;;;;;;;2.40;1.57;;;24.40;98.70;;;;;;5053710;28;20886;-56
2022/07/12 07:42:13;;;;;;;1.73;1.37;;;24.30;97.60;;;;;;5054084;28;20540;-56
2022/07/12 07:44:40;;;;;;;2.40;2.00;;;24.60;97.50;;;;;;5053560;28;20550;-56
2022/07/12 07:47:07;;;;;;;5.37;1.90;;;24.80;97.70;;;;;;5053882;28;20449;-56
2022/07/12 07:49:34;;;;;;;2.20;2.10;;;25.20;97.60;;;;;;5054307;28;20476;-56
2022/07/12 07:52:01;;;;;;;3.83;2.07;;;24.80;97.30;;;;;;5053968;28;21016;-56
2022/07/12 07:54:29;;;;;;;5.10;1.77;;;24.50;98.40;;;;;;5053469;28;20452;-55
2022/07/12 07:56:57;;;;;;;1.67;1.57;;;24.50;98.40;;;;;;5053789;28;20541;-55
2022/07/12 07:59:24;;;;;;;1.50;1.40;;;25.00;97.40;;;;;;5054040;28;20545;-56
2022/07/12 08:01:53;;;;;;;1.33;1.20;;;25.20;96.30;;;;;;5053833;28;20445;-56
2022/07/12 08:04:21;;;;;;;1.87;1.00;;;25.50;95.30;;;;;;5053434;28;20453;-55
2022/07/12 08:06:50;;;;;;;1.20;1.10;;;25.70;94.30;;;;;;5054052;28;20546;-55
2022/07/12 08:09:18;;;;;;;1.50;1.40;;;26.30;94.80;;;;;;5053421;28;20455;-55
2022/07/12 08:11:45;;;;;;;1.90;1.40;;;26.70;93.10;;;;;;5053395;28;20545;-55
2022/07/12 08:14:13;;;;;;;1.40;1.10;;;27.20;93.00;;;;;;5053372;28;20543;-55
2022/07/12 08:16:41;;;;;;;1.20;1.10;;;27.60;92.50;;;;;;5053413;28;20818;-55
2022/07/12 08:19:09;;;;;;;1.17;1.07;;;27.80;89.80;;;;;;5053078;28;20481;-55
2022/07/12 08:21:36;;;;;;;1.30;1.20;;;27.50;89.40;;;;;;5053336;28;20456;-55
2022/07/12 08:24:04;;;;;;;1.63;1.30;;;27.90;89.10;;;;;;5053124;28;20533;-56
2022/07/12 08:26:31;;;;;;;1.40;1.20;;;;;;;;;;5053002;28;20485;-55
2022/07/12 08:28:58;;;;;;;1.43;1.33;;;28.70;87.10;;;;;;5053119;28;20461;-55
2022/07/12 08:31:27;;;;;;;1.30;1.20;;;28.90;85.00;;;;;;5053326;28;20560;-56
2022/07/12 08:33:54;;;;;;;1.87;1.37;;;28.90;84.30;;;;;;5052996;28;20802;-56
2022/07/12 08:36:22;;;;;;;1.30;1.20;;;29.10;84.90;;;;;;5053348;28;20449;-56
2022/07/12 08:38:53;;;;;;;2.17;1.60;;;28.80;81.40;;;;;;5053170;28;20484;-55
2022/07/12 08:41:20;;;;;;;1.70;1.23;;;28.50;81.60;;;;;;5053233;28;20465;-56
2022/07/12 08:43:47;;;;;;;2.70;1.30;;;28.00;81.90;;;;;;5052882;28;20481;-56
2022/07/12 08:46:16;;;;;;;1.30;1.20;;;28.60;83.30;;;;;;5053003;28;20703;-56
2022/07/12 08:48:45;;;;;;;1.20;1.10;;;29.50;81.50;;;;;;5052923;28;20532;-56
2022/07/12 08:51:13;;;;;;;3.00;1.80;;;29.50;80.60;;;;;;5053130;28;20555;-56
2022/07/12 08:53:41;;;;;;;1.40;1.30;;;29.30;78.70;;;;;;5052775;28;20445;-55
2022/07/12 08:56:29;;;;;;;2.17;1.40;;;29.10;79.10;;;;;;5052231;28;20441;-56
2022/07/12 08:59:10;;;;;;;1.40;1.30;;;28.90;78.50;;;;;;5052853;28;20465;-55
2022/07/12 09:01:42;;;;;;;1.60;1.50;;;28.90;79.80;;;;;;5052621;28;20529;-55
2022/07/12 09:04:15;;;;;;;1.70;1.60;;;29.30;80.30;;;;;;5052759;28;20445;-56
2022/07/12 09:06:42;;;;;;;1.47;1.37;;;29.30;78.80;;;;;;5052764;28;20485;-55
2022/07/12 09:09:10;;;;;;;1.77;1.67;;;29.00;76.60;;;;;;5052754;28;20802;-55
2022/07/12 09:11:39;;;;;;;1.60;1.50;;;29.10;78.60;;;;;;5052598;28;20452;-55
2022/07/12 09:14:07;;;;;;;2.13;1.40;;;29.80;77.60;;;;;;5052545;28;20492;-55
2022/07/12 09:16:35;;;;;;;2.40;1.70;;;29.70;75.30;;;;;;5052422;28;20457;-55
2022/07/12 09:19:19;;;;;;;2.30;1.70;;;29.10;74.40;;;;;;5052635;28;20445;-55
2022/07/12 09:21:51;;;;;;;1.50;1.40;;;29.20;75.80;;;;;;5052513;28;20896;-55
2022/07/12 09:24:19;;;;;;;1.60;1.40;;;29.40;75.50;;;;;;5052373;28;20489;-55
2022/07/12 09:26:47;;;;;;;1.70;1.57;;;28.80;74.50;;;;;;5052392;28;20520;-55
2022/07/12 09:29:16;;;;;;;1.47;1.37;;;28.30;76.80;;;;;;5052706;28;20456;-55
2022/07/12 09:37:12;;;;;;;1.80;1.47;;;28.30;76.40;;;;;;5052486;28;20408;-55
2022/07/12 09:39:40;;;;;;;3.73;1.50;;;29.40;75.50;;;;;;5051999;28;20511;-55
2022/07/12 09:42:10;;;;;;;2.60;1.40;;;28.20;74.50;;;;;;5052308;28;20444;-55
2022/07/12 09:44:37;;;;;;;1.57;1.37;;;27.40;77.40;;;;;;5052387;28;20449;-55
2022/07/12 09:47:05;;;;;;;3.10;1.50;;;27.70;78.10;;;;;;5052022;28;21022;-55
2022/07/12 09:49:35;;;;;;;1.60;1.40;;;28.60;77.80;;;;;;5052069;28;20465;-55
2022/07/12 09:52:05;;;;;;;1.67;1.53;;;29.30;73.20;;;;;;5052153;28;20450;-55
2022/07/12 09:54:36;;;;;;;1.80;1.50;;;29.90;73.50;;;;;;5051969;28;20449;-55
2022/07/12 09:57:04;;;;;;;1.73;1.63;;;;;;;;;;5052128;28;20460;-55
2022/07/12 09:59:36;;;;;;;1.30;1.20;;;30.90;70.60;;;;;;5052371;28;20540;-55
2022/07/12 10:02:05;;;;;;;1.47;1.23;;;30.50;70.80;;;;;;5052067;28;20503;-55
2022/07/12 10:04:34;;;;;;;5.20;1.60;;;29.20;72.10;;;;;;5052169;28;20540;-55
2022/07/12 10:07:02;;;;;;;1.33;1.23;;;29.20;72.20;;;;;;5053779;28;20928;-55
2022/07/12 10:09:30;;;;;;;2.80;1.67;;;29.50;71.30;;;;;;5055876;28;20540;-55
2022/07/12 10:11:58;;;;;;;1.27;1.17;;;;;;;;;;5055658;28;20484;-55
2022/07/12 10:14:26;;;;;;;1.70;1.60;;;30.20;69.10;;;;;;5055824;28;20461;-55
2022/07/12 10:16:54;;;;;;;1.30;1.20;;;30.30;70.10;;;;;;5056015;28;20448;-55
2022/07/12 10:19:29;;;;;;;1.50;1.20;;;29.90;69.60;;;;;;5055655;28;20459;-55
2022/07/12 10:21:59;;;;;;;5.07;1.50;;;30.00;69.50;;;;;;5055638;28;20429;-55
2022/07/12 10:24:55;;;;;;;2.07;1.37;;;29.90;69.60;;;;;;5055513;28;20544;-55
2022/07/12 10:27:32;;;;;;;3.10;1.40;;;30.40;71.50;;;;;;5055760;28;20911;-55
2022/07/12 10:30:17;;;;;;;1.60;1.17;;;30.80;67.50;;;;;;5055645;28;20464;-55
2022/07/12 10:32:46;;;;;;;1.93;1.43;;;;;;;;;;5056107;28;20528;-55
2022/07/12 10:35:16;;;;;;;1.53;1.40;;;31.60;66.90;;;;;;5055326;28;20962;-56
2022/07/12 10:38:04;;;;;;;1.40;1.30;;;;;;;;;;5055275;28;20433;-55
2022/07/12 10:40:35;;;;;;;1.40;1.30;;;31.80;65.50;;;;;;5054756;28;20480;-55
2022/07/12 10:46:18;;;;;;;1.40;1.30;;;31.80;64.50;;;;;;5054823;28;20529;-55
2022/07/12 10:48:46;;;;;;;1.30;1.10;;;31.80;64.50;;;;;;5055447;28;20437;-56
2022/07/12 10:51:15;;;;;;;1.20;1.00;;;31.20;64.00;;;;;;5055169;28;20495;-57
2022/07/12 10:53:48;;;;;;;1.30;1.20;;;31.00;63.40;;;;;;5055360;28;20449;-56
2022/07/12 10:56:20;;;;;;;1.70;1.40;;;30.40;66.10;;;;;;5055188;28;20429;-56
2022/07/12 10:58:51;;;;;;;1.33;1.23;;;30.30;64.90;;;;;;5055226;28;20885;-56
2022/07/12 11:01:19;;;;;;;1.30;1.20;;;;;;;;;;5054976;28;20800;-57
2022/07/12 11:03:49;;;;;;;1.90;1.60;;;31.60;62.40;;;;;;5054686;28;20453;-56
2022/07/12 11:06:17;;;;;;;2.07;1.10;;;31.90;62.20;;;;;;5054926;28;20495;-56
2022/07/12 11:08:57;;;;;;;1.30;1.10;;;32.20;61.70;;;;;;5054827;28;20454;-56
2022/07/12 11:11:26;;;;;;;1.20;1.10;;;32.10;61.40;;;;;;5054489;28;20974;-56
2022/07/12 11:13:54;;;;;;;1.73;1.13;;;31.10;64.30;;;;;;5054847;28;20524;-56
2022/07/12 11:16:22;;;;;;;1.30;1.10;;;30.80;62.30;;;;;;5054361;28;20449;-56
2022/07/12 11:18:49;;;;;;;1.70;1.33;;;31.00;63.00;;;;;;5053707;28;20532;-56
2022/07/12 11:21:16;;;;;;;1.20;1.10;;;31.20;62.30;;;;;;5054236;28;20476;-56
2022/07/12 11:23:44;;;;;;;1.47;1.20;;;31.40;63.80;;;;;;5053965;28;20480;-56
2022/07/12 11:26:14;;;;;;;3.67;1.30;;;31.40;61.40;;;;;;5054458;28;20564;-56
2022/07/12 11:28:42;;;;;;;1.90;1.17;;;31.30;61.10;;;;;;5054622;28;20449;-56
2022/07/12 11:31:11;;;;;;;1.73;1.20;;;31.40;62.30;;;;;;5054511;28;20819;-56
2022/07/12 11:33:39;;;;;;;1.97;1.50;;;31.40;61.10;;;;;;5054422;28;20511;-56
2022/07/12 11:36:08;;;;;;;1.20;1.10;;;31.50;61.80;;;;;;5054425;28;20950;-56
2022/07/12 11:38:37;;;;;;;1.13;1.03;;;31.10;60.60;;;;;;5053157;28;20544;-56
2022/07/12 11:41:06;;;;;;;1.37;1.23;;;31.60;61.20;;;;;;5054179;28;21000;-57
2022/07/12 11:43:36;;;;;;;1.23;1.13;;;32.00;59.90;;;;;;5054442;28;20480;-56
2022/07/12 11:46:04;;;;;;;1.23;1.10;;;;;;;;;;5053896;28;21055;-56
2022/07/12 11:48:32;;;;;;;1.30;1.20;;;32.50;57.90;;;;;;5054323;28;20471;-56
2022/07/12 11:51:08;;;;;;;1.20;1.10;;;31.40;59.40;;;;;;5053977;28;20479;-56
2022/07/12 11:53:36;;;;;;;1.10;1.00;;;30.60;59.70;;;;;;5054221;28;20429;-56
2022/07/12 11:56:06;;;;;;;1.60;1.10;;;31.30;59.70;;;;;;5054042;28;20449;-56
2022/07/12 11:58:37;;;;;;;2.60;1.20;;;31.50;58.20;;;;;;5053756;28;20445;-55
2022/07/12 12:01:05;;;;;;;3.57;1.20;;;31.70;58.70;;;;;;5053769;28;20542;-56
2022/07/12 12:03:44;;;;;;;1.40;1.30;;;31.90;58.40;;;;;;5053853;28;20541;-56
2022/07/12 12:06:11;;;;;;;1.40;1.30;;;31.80;57.70;;;;;;5053990;28;20508;-55
2022/07/12 12:08:38;;;;;;;1.30;1.07;;;31.70;58.30;;;;;;5053644;28;20456;-55
2022/07/12 12:11:05;;;;;;;1.60;1.40;;;31.90;57.80;;;;;;5053549;28;20465;-55
2022/07/12 12:13:34;;;;;;;1.10;1.00;;;31.60;58.00;;;;;;5053027;28;20445;-55
2022/07/12 12:16:03;;;;;;;1.53;1.10;;;31.30;58.00;;;;;;5054292;28;20531;-56
2022/07/12 12:18:34;;;;;;;2.57;1.30;;;31.30;59.10;;;;;;5053533;28;20449;-56
2022/07/12 12:21:03;;;;;;;2.60;1.17;;;31.50;58.60;;;;;;5053488;28;20492;-55
2022/07/12 12:23:31;;;;;;;1.73;1.10;;;30.90;58.60;;;;;;5052922;28;20499;-56
2022/07/12 12:26:15;;;;;;;2.03;1.30;;;31.20;59.20;;;;;;5053190;28;20727;-55
2022/07/12 12:28:45;;;;;;;1.13;1.03;;;31.40;58.30;;;;;;5053102;28;20450;-55
2022/07/12 12:31:13;;;;;;;1.67;1.30;;;31.20;58.10;;;;;;5053152;28;20477;-55
2022/07/12 12:33:42;;;;;;;1.10;1.00;;;31.30;57.90;;;;;;5053069;28;20893;-55
2022/07/12 12:36:17;;;;;;;2.03;1.40;;;31.40;57.10;;;;;;5053365;28;20453;-55
2022/07/12 12:38:45;;;;;;;1.20;1.10;;;31.10;58.70;;;;;;5052626;28;20516;-55
2022/07/12 12:41:13;;;;;;;2.23;1.07;;;31.40;57.10;;;;;;5053123;28;20465;-56
2022/07/12 12:43:41;;;;;;;1.83;1.10;;;31.50;57.90;;;;;;5053092;28;20487;-56
2022/07/12 12:46:09;;;;;;;1.67;1.00;;;30.80;57.80;;;;;;5053026;28;20485;-55
2022/07/12 12:48:37;;;;;;;1.40;1.30;;;30.60;57.70;;;;;;5052954;28;20485;-55
2022/07/12 12:51:07;;;;;;;1.20;1.10;;;31.00;57.90;;;;;;5052815;28;20453;-56
2022/07/12 12:53:36;;;;;;;2.60;1.33;;;31.10;57.50;;;;;;5052911;28;20445;-55
2022/07/12 12:56:08;;;;;;;1.20;1.10;;;30.50;58.20;;;;;;5052920;28;20453;-56
2022/07/12 12:58:36;;;;;;;1.30;1.10;;;30.20;57.80;;;;;;5052783;28;20434;-55
2022/07/12 13:01:05;;;;;;;1.50;1.20;;;30.00;57.90;;;;;;5052655;28;20461;-56
2022/07/12 13:03:33;;;;;;;1.50;1.30;;;30.70;58.90;;;;;;5052495;28;20469;-55
2022/07/12 13:06:01;;;;;;;1.50;1.10;;;30.50;58.10;;;;;;5052675;28;20536;-56